Time;durP1;ratioP1;P1;durP2;ratioP2;P2;SDS_P1;SDS_P2;PMS_P1;PMS_P2;Temp;Humidity;BMP_temperature;BMP_pressure;BME280_temperature;BME280_humidity;BME280_pressure;Samples;Min_cycle;Max_cycle;Signal;HPM_P1;HPM_P2
2022/04/27 00:00:37;;;;;;;12.02;4.18;;;;;;;6.85;100.00;102048.91;5087432;28;20114;-82
2022/04/27 00:03:04;;;;;;;9.88;4.00;;;;;;;6.91;100.00;102058.97;5107315;28;20038;-81
2022/04/27 00:05:31;;;;;;;10.00;4.65;;;;;;;7.01;100.00;102063.56;5095273;28;20501;-81
2022/04/27 00:07:56;;;;;;;8.90;4.30;;;;;;;6.90;100.00;102070.34;5104780;28;20035;-80
2022/04/27 00:10:22;;;;;;;13.65;4.75;;;;;;;6.86;100.00;102063.63;5101310;28;20511;-80
2022/04/27 00:12:48;;;;;;;11.80;4.43;;;;;;;6.85;99.65;102064.53;5090573;28;20028;-77
2022/04/27 00:15:15;;;;;;;11.90;4.55;;;;;;;6.89;100.00;102063.44;5102938;28;20047;-80
2022/04/27 00:17:41;;;;;;;17.08;4.50;;;;;;;6.91;100.00;102048.53;5075352;28;20040;-80
2022/04/27 00:20:08;;;;;;;10.85;4.28;;;;;;;6.83;100.00;102062.84;5086656;28;20032;-79
2022/04/27 00:22:34;;;;;;;12.15;4.40;;;;;;;6.78;100.00;102056.22;5088615;28;20044;-80
2022/04/27 00:25:02;;;;;;;16.23;4.55;;;;;;;6.79;100.00;102063.13;5091817;28;20059;-79
2022/04/27 00:27:28;;;;;;;12.05;4.30;;;;;;;6.69;100.00;102070.66;5102843;28;20132;-80
2022/04/27 00:29:54;;;;;;;14.40;4.50;;;;;;;6.55;100.00;102062.78;5074417;28;20500;-79
2022/04/27 00:32:20;;;;;;;12.73;4.55;;;;;;;6.55;100.00;102060.19;5070669;28;20043;-80
2022/04/27 00:34:45;;;;;;;12.65;4.70;;;;;;;6.52;100.00;102063.81;5086304;28;20476;-81
2022/04/27 00:37:11;;;;;;;11.52;4.40;;;;;;;6.35;100.00;102062.16;5090282;28;20046;-80
2022/04/27 00:39:37;;;;;;;10.13;4.25;;;;;;;6.21;100.00;102047.28;5113376;27;20097;-80
2022/04/27 00:42:21;;;;;;;19.75;5.00;;;;;;;6.13;100.00;102062.50;5094333;28;20397;-80
2022/04/27 00:44:48;;;;;;;11.75;4.18;;;;;;;6.07;100.00;102062.03;5090028;28;20036;-79
2022/04/27 00:47:15;;;;;;;12.10;5.20;;;;;;;5.99;100.00;102063.28;5106264;28;20032;-80
2022/04/27 00:49:45;;;;;;;17.48;5.22;;;;;;;5.87;100.00;102060.47;5109348;28;20521;-81
2022/04/27 00:52:12;;;;;;;14.20;4.90;;;;;;;5.88;100.00;102062.13;5106315;28;20557;-82
2022/04/27 00:54:42;;;;;;;13.10;4.63;;;;;;;5.85;100.00;102060.56;5121912;27;20511;-82
2022/04/27 00:57:09;;;;;;;9.70;4.40;;;;;;;5.77;100.00;102065.34;5107078;28;20509;-80
2022/04/27 00:59:35;;;;;;;13.98;5.47;;;;;;;5.77;100.00;102063.56;5108882;28;20039;-81
2022/04/27 01:02:01;;;;;;;16.50;4.88;;;;;;;5.72;100.00;102055.16;5108935;28;20043;-79
2022/04/27 01:04:28;;;;;;;13.57;5.53;;;;;;;5.72;100.00;102056.94;5107299;28;20036;-80
2022/04/27 01:06:54;;;;;;;13.63;5.03;;;;;;;5.80;100.00;102075.56;5091704;28;20035;-80
2022/04/27 01:09:24;;;;;;;11.57;4.80;;;;;;;5.69;100.00;102070.97;5109791;28;20067;-80
2022/04/27 01:11:51;;;;;;;15.10;4.93;;;;;;;5.70;100.00;102072.63;5104713;28;20035;-81
2022/04/27 01:14:16;;;;;;;12.05;4.20;;;;;;;5.73;100.00;102061.22;5108882;28;20031;-80
2022/04/27 01:16:42;;;;;;;14.88;5.45;;;;;;;5.84;100.00;102079.72;5087770;28;20502;-80
2022/04/27 01:19:08;;;;;;;13.23;5.30;;;;;;;5.82;100.00;102074.59;5091000;28;20032;-81
2022/04/27 01:21:34;;;;;;;12.05;4.60;;;;;;;5.77;100.00;102081.81;5083961;28;20064;-81
2022/04/27 01:24:05;;;;;;;14.32;4.85;;;;;;;5.65;100.00;102082.44;5089993;28;20132;-81
2022/04/27 01:26:33;;;;;;;10.02;4.75;;;;;;;5.59;100.00;102077.56;5106599;28;20032;-82
2022/04/27 01:28:59;;;;;;;12.63;5.28;;;;;;;5.50;100.00;102067.66;5106677;28;20031;-80
2022/04/27 01:31:24;;;;;;;16.48;5.43;;;;;;;5.52;100.00;102071.88;5090140;28;20097;-80
2022/04/27 01:33:51;;;;;;;15.63;5.28;;;;;;;5.60;100.00;102085.31;5107016;28;20039;-80
2022/04/27 01:36:16;;;;;;;15.57;5.05;;;;;;;5.50;100.00;102083.25;5108322;28;20405;-79
2022/04/27 01:38:43;;;;;;;11.82;5.00;;;;;;;5.51;100.00;102084.97;5077462;28;20042;-81
2022/04/27 01:41:09;;;;;;;14.60;5.07;;;;;;;5.42;100.00;102083.66;5107494;28;20043;-80
2022/04/27 01:43:36;;;;;;;15.70;5.07;;;;;;;5.35;100.00;102085.75;5074307;28;20032;-81
2022/04/27 01:46:05;;;;;;;9.57;5.00;;;;;;;5.35;100.00;102096.16;5078054;28;20024;-80
2022/04/27 01:48:32;;;;;;;13.20;5.00;;;;;;;5.32;100.00;102103.28;5087307;28;20036;-80
2022/04/27 01:50:57;;;;;;;10.85;4.63;;;;;;;5.24;100.00;102101.09;5089685;28;20023;-80
2022/04/27 01:56:09;;;;;;;20.88;5.30;;;;;;;5.13;100.00;102099.03;5103704;28;20035;-80
2022/04/27 01:58:41;;;;;;;12.95;5.40;;;;;;;5.15;100.00;102104.16;5107037;28;20028;-80
2022/04/27 02:01:11;;;;;;;9.88;4.82;;;;;;;5.11;100.00;102108.66;5083529;28;20502;-80
2022/04/27 02:03:38;;;;;;;15.77;5.80;;;;;;;5.07;100.00;102105.38;5090719;28;20032;-80
2022/04/27 02:06:03;;;;;;;11.85;4.90;;;;;;;5.03;100.00;102103.03;5103050;28;20121;-80
2022/04/27 02:08:29;;;;;;;14.38;5.25;;;;;;;5.04;100.00;102102.09;5103763;28;20411;-81
2022/04/27 02:10:55;;;;;;;12.98;4.72;;;;;;;4.94;100.00;102113.88;5088169;28;20047;-80
2022/04/27 02:13:21;;;;;;;15.25;5.32;;;;;;;4.98;100.00;102107.59;5098606;28;20187;-81
2022/04/27 02:15:47;;;;;;;11.57;4.82;;;;;;;4.90;100.00;102105.38;5079375;28;20065;-80
2022/04/27 02:18:25;;;;;;;14.02;5.60;;;;;;;4.86;100.00;102117.69;5103825;28;20038;-80
2022/04/27 02:20:50;;;;;;;12.18;5.00;;;;;;;4.87;100.00;102108.13;5090656;28;20735;-80
2022/04/27 02:23:20;;;;;;;19.67;5.40;;;;;;;4.83;100.00;102123.03;5104380;28;20035;-81
2022/04/27 02:25:47;;;;;;;10.82;5.32;;;;;;;4.80;100.00;102120.59;5092040;28;20387;-81
2022/04/27 02:28:13;;;;;;;12.30;4.60;;;;;;;4.78;100.00;102106.81;5092777;28;20104;-80
2022/04/27 02:30:39;;;;;;;13.60;4.63;;;;;;;4.79;100.00;102108.50;5091719;28;20059;-80
2022/04/27 02:33:05;;;;;;;10.27;5.13;;;;;;;4.81;100.00;102129.22;5094252;28;20796;-80
2022/04/27 02:35:31;;;;;;;8.60;4.85;;;;;;;4.72;100.00;102120.13;5094249;28;20043;-80
2022/04/27 02:37:56;;;;;;;12.75;4.88;;;;;;;4.65;100.00;102116.13;5102583;28;20032;-80
2022/04/27 02:40:22;;;;;;;15.18;5.13;;;;;;;4.64;100.00;102127.47;5106536;28;20043;-80
2022/04/27 02:42:49;;;;;;;12.00;5.18;;;;;;;4.48;100.00;102128.19;5108308;28;20375;-81
2022/04/27 02:45:15;;;;;;;12.32;5.32;;;;;;;4.50;100.00;102128.09;5107404;28;20047;-79
2022/04/27 02:47:40;;;;;;;12.82;5.18;;;;;;;4.55;100.00;102138.28;5091446;28;20023;-80
2022/04/27 02:52:56;;;;;;;13.30;5.22;;;;;;;4.51;100.00;102132.38;5099430;28;20043;-79
2022/04/27 02:55:27;;;;;;;13.57;5.53;;;;;;;4.51;100.00;102131.56;5090709;28;20028;-79
2022/04/27 02:57:53;;;;;;;10.88;4.60;;;;;;;4.70;100.00;102127.16;5110007;28;20389;-81
2022/04/27 03:00:20;;;;;;;10.15;4.40;;;;;;;4.65;100.00;102127.38;5084725;28;20043;-81
2022/04/27 03:02:46;;;;;;;13.23;4.88;;;;;;;4.71;100.00;102130.59;5101388;28;20037;-80
2022/04/27 03:05:11;;;;;;;10.95;5.03;;;;;;;4.65;100.00;102118.72;5091879;28;20039;-79
2022/04/27 03:07:37;;;;;;;11.32;4.78;;;;;;;4.63;100.00;102134.41;5107584;28;20033;-81
2022/04/27 03:10:03;;;;;;;11.10;4.70;;;;;;;4.54;100.00;102131.38;5105058;28;20035;-80
2022/04/27 03:12:30;;;;;;;12.23;4.93;;;;;;;4.46;100.00;102124.84;5072961;28;20031;-79
2022/04/27 03:14:57;;;;;;;13.25;5.03;;;;;;;4.53;100.00;102129.72;5088921;28;20089;-80
2022/04/27 03:17:23;;;;;;;14.65;4.35;;;;;;;4.45;100.00;102125.72;5102350;28;20032;-80
2022/04/27 03:19:49;;;;;;;13.25;4.75;;;;;;;4.39;100.00;102143.34;5104986;28;20063;-80
2022/04/27 03:22:15;;;;;;;12.75;4.70;;;;;;;4.17;100.00;102139.16;5099983;28;20038;-80
2022/04/27 03:24:40;;;;;;;8.88;4.28;;;;;;;4.11;100.00;102149.84;5105543;28;20066;-80
2022/04/27 03:27:13;;;;;;;14.45;4.72;;;;;;;4.03;100.00;102146.72;5105526;28;20434;-80
2022/04/27 03:29:40;;;;;;;19.50;5.05;;;;;;;4.00;100.00;102142.53;5072869;28;20505;-80
2022/04/27 03:32:07;;;;;;;13.02;5.00;;;;;;;4.03;100.00;102146.72;5098927;28;20040;-80
2022/04/27 03:34:36;;;;;;;13.35;5.70;;;;;;;4.00;100.00;102142.53;5074744;28;20046;-80
2022/04/27 03:37:02;;;;;;;12.77;5.00;;;;;;;3.95;100.00;102152.28;5089108;28;20040;-81
2022/04/27 03:39:27;;;;;;;12.68;5.22;;;;;;;3.99;100.00;102158.19;5073196;28;20088;-81
2022/04/27 03:41:53;;;;;;;14.18;4.97;;;;;;;3.90;100.00;102151.66;5092599;28;20101;-81
2022/04/27 03:44:19;;;;;;;12.35;4.90;;;;;;;3.98;100.00;102167.72;5105825;28;20039;-80
2022/04/27 03:46:45;;;;;;;10.45;4.55;;;;;;;3.85;100.00;102153.63;5107587;28;20726;-79
2022/04/27 03:49:11;;;;;;;16.95;5.20;;;;;;;3.86;100.00;102170.84;5106927;28;20047;-81
2022/04/27 03:51:37;;;;;;;16.70;6.32;;;;;;;3.97;100.00;102168.63;5106467;28;20032;-80
2022/04/27 03:54:03;;;;;;;15.60;5.47;;;;;;;3.91;100.00;102171.50;5101457;28;20119;-79
2022/04/27 03:56:29;;;;;;;13.40;5.45;;;;;;;3.89;100.00;102181.94;5072609;28;20035;-81
2022/04/27 03:58:57;;;;;;;12.93;5.93;;;;;;;3.87;100.00;102188.97;5104746;28;20042;-80
2022/04/27 04:01:24;;;;;;;13.38;5.20;;;;;;;3.80;100.00;102186.72;5100346;28;20042;-81
2022/04/27 04:03:49;;;;;;;15.60;5.63;;;;;;;3.82;100.00;102188.31;5091744;28;20039;-80
2022/04/27 04:06:15;;;;;;;12.68;5.72;;;;;;;3.89;100.00;102181.13;5089327;28;20168;-80
2022/04/27 04:08:45;;;;;;;11.52;5.45;;;;;;;3.90;100.00;102199.22;5093824;28;20124;-80
2022/04/27 04:11:11;;;;;;;17.20;5.38;;;;;;;3.84;100.00;102199.50;5088508;28;20028;-79
2022/04/27 04:13:57;;;;;;;16.25;5.00;;;;;;;3.84;100.00;102203.81;5088370;28;20047;-79
2022/04/27 04:16:43;;;;;;;14.63;5.80;;;;;;;3.80;100.00;102199.69;5101614;28;20754;-80
2022/04/27 04:19:28;;;;;;;10.48;5.60;;;;;;;3.96;100.00;102212.84;5094063;28;20040;-80
2022/04/27 04:22:02;;;;;;;13.48;5.03;;;;;;;4.09;100.00;102208.81;5110497;28;20039;-78
2022/04/27 04:24:39;;;;;;;16.25;5.43;;;;;;;4.31;100.00;102213.84;5097404;28;20039;-79
2022/04/27 04:29:49;;;;;;;15.00;5.07;;;;;;;4.57;100.00;102214.41;5091154;28;20039;-79
2022/04/27 04:32:16;;;;;;;15.07;5.10;;;;;;;4.58;100.00;102216.13;5084386;28;20046;-79
2022/04/27 04:35:17;;;;;;;12.68;4.93;;;;;;;4.63;100.00;102216.72;5099899;28;20050;-78
2022/04/27 04:37:43;;;;;;;22.25;4.82;;;;;;;4.65;100.00;102218.34;5110013;28;20028;-79
2022/04/27 04:40:09;;;;;;;14.10;4.70;;;;;;;4.59;100.00;102231.63;5103772;28;20054;-79
2022/04/27 04:42:35;;;;;;;10.32;4.75;;;;;;;4.59;100.00;102222.97;5092775;28;20043;-79
2022/04/27 04:45:01;;;;;;;13.75;4.80;;;;;;;4.56;100.00;102218.78;5105562;28;20035;-79
2022/04/27 04:47:45;;;;;;;13.18;4.63;;;;;;;4.51;100.00;102225.09;5118627;27;20288;-78
2022/04/27 04:50:31;;;;;;;14.82;5.68;;;;;;;4.52;100.00;102226.78;5110497;28;20040;-79
2022/04/27 04:53:06;;;;;;;12.20;5.50;;;;;;;4.46;100.00;102230.50;5090557;28;20043;-80
2022/04/27 04:55:54;;;;;;;15.30;5.28;;;;;;;4.58;100.00;102232.53;5100034;28;20058;-79
2022/04/27 04:58:52;;;;;;;15.63;5.35;;;;;;;4.63;100.00;102227.97;5101716;28;20040;-79
2022/04/27 05:01:26;;;;;;;19.52;5.78;;;;;;;4.73;100.00;102227.53;5109206;28;20035;-80
2022/04/27 05:04:05;;;;;;;11.57;5.25;;;;;;;4.68;100.00;102228.59;5101952;28;20428;-79
2022/04/27 05:06:48;;;;;;;13.80;5.25;;;;;;;4.71;100.00;102240.63;5088199;28;20043;-79
2022/04/27 05:09:40;;;;;;;13.75;5.78;;;;;;;4.79;100.00;102238.50;5080859;28;20031;-80
2022/04/27 05:12:30;;;;;;;9.68;5.05;;;;;;;4.91;100.00;102241.44;5098202;28;20047;-79
2022/04/27 05:15:18;;;;;;;10.18;4.78;;;;;;;4.94;100.00;102243.91;5102038;28;20047;-79
2022/04/27 05:17:55;;;;;;;10.85;5.68;;;;;;;5.01;100.00;102250.47;5093495;28;20035;-79
2022/04/27 05:20:44;;;;;;;13.45;5.60;;;;;;;5.13;100.00;102247.28;5101231;28;20481;-78
2022/04/27 05:23:17;;;;;;;18.98;7.03;;;;;;;5.23;100.00;102255.47;5095521;28;20031;-79
2022/04/27 05:26:03;;;;;;;15.52;6.03;;;;;;;5.38;100.00;102256.50;5099149;28;20095;-79
2022/04/27 05:31:57;;;;;;;13.82;6.22;;;;;;;5.64;100.00;102269.03;5108177;28;20028;-78
2022/04/27 05:34:44;;;;;;;13.57;5.70;;;;;;;5.85;100.00;102269.72;5055180;28;20131;-81
2022/04/27 05:37:34;;;;;;;13.05;5.45;;;;;;;5.98;100.00;102279.53;5109785;28;20035;-79
2022/04/27 05:40:18;;;;;;;13.05;5.13;;;;;;;6.13;100.00;102273.53;5100869;28;20036;-79
2022/04/27 05:42:53;;;;;;;14.15;5.15;;;;;;;6.23;100.00;102272.16;5077310;28;20039;-80
2022/04/27 05:45:19;;;;;;;15.05;4.40;;;;;;;6.40;100.00;102280.81;5109099;28;20032;-78
2022/04/27 05:48:05;;;;;;;14.07;4.95;;;;;;;6.53;100.00;102274.03;5098973;28;20051;-78
2022/04/27 05:50:38;;;;;;;16.88;5.07;;;;;;;6.79;100.00;102283.03;5096986;28;20513;-80
2022/04/27 05:53:12;;;;;;;14.68;4.63;;;;;;;7.02;98.95;102286.97;5095477;28;20039;-79
2022/04/27 05:56:01;;;;;;;15.23;4.65;;;;;;;7.33;100.00;102282.66;5111564;28;20055;-80
2022/04/27 05:58:59;;;;;;;14.55;4.40;;;;;;;7.46;96.29;102290.63;5093810;28;20036;-78
2022/04/27 06:02:02;;;;;;;10.32;4.05;;;;;;;7.58;96.19;102295.13;5104144;28;20589;-82
2022/04/27 06:04:29;;;;;;;13.55;4.65;;;;;;;7.55;94.91;102299.69;5088783;28;20032;-80
2022/04/27 06:06:55;;;;;;;12.73;4.28;;;;;;;7.64;93.86;102295.72;5075617;28;20089;-80
2022/04/27 06:09:21;;;;;;;9.80;4.10;;;;;;;7.64;94.88;102309.59;5101667;28;20043;-80
2022/04/27 06:12:07;;;;;;;11.50;4.15;;;;;;;7.72;96.55;102304.78;5104762;28;20051;-80
2022/04/27 06:14:42;;;;;;;11.30;3.67;;;;;;;7.84;93.94;102315.47;5094913;28;20041;-80
2022/04/27 06:17:17;;;;;;;13.10;3.67;;;;;;;7.76;93.22;102321.09;5109739;28;20043;-80
2022/04/27 06:19:44;;;;;;;16.95;4.05;;;;;;;7.77;93.19;102323.63;5097118;28;20039;-81
2022/04/27 06:22:12;;;;;;;14.57;3.83;;;;;;;7.76;95.08;102308.91;5091971;28;20043;-80
2022/04/27 06:24:39;;;;;;;17.00;4.28;;;;;;;7.88;92.98;102315.16;5082905;28;20107;-81
2022/04/27 06:27:23;;;;;;;12.70;3.53;;;;;;;8.05;92.60;102332.47;5101258;28;20609;-80
2022/04/27 06:29:48;;;;;;;11.55;4.05;;;;;;;8.07;92.25;102325.38;5095088;28;20160;-81
2022/04/27 06:32:14;;;;;;;16.50;4.45;;;;;;;8.10;90.70;102340.88;5110278;28;20032;-80
2022/04/27 06:34:39;;;;;;;10.25;4.10;;;;;;;8.22;90.40;102344.53;5091253;28;20106;-81
2022/04/27 06:37:05;;;;;;;12.23;3.63;;;;;;;8.32;90.89;102345.63;5105134;28;20026;-80
2022/04/27 06:39:38;;;;;;;15.50;3.90;;;;;;;8.44;91.28;102351.97;5104837;28;20090;-81
2022/04/27 06:42:06;;;;;;;8.50;3.38;;;;;;;8.60;90.56;102340.56;5089369;28;20047;-80
2022/04/27 06:44:35;;;;;;;10.63;3.20;;;;;;;8.60;86.33;102343.16;5109595;28;20050;-81
2022/04/27 06:47:19;;;;;;;13.63;3.60;;;;;;;8.64;87.90;102355.94;5123770;27;20482;-80
2022/04/27 06:50:06;;;;;;;13.18;3.42;;;;;;;8.66;86.72;102359.31;5110923;27;20335;-82
2022/04/27 06:52:52;;;;;;;11.45;3.88;;;;;;;8.74;89.12;102354.47;5104411;28;20095;-81
2022/04/27 06:55:41;;;;;;;17.27;4.00;;;;;;;8.62;85.52;102357.00;5085213;28;20035;-80
2022/04/27 06:58:25;;;;;;;13.48;3.70;;;;;;;8.65;85.80;102356.81;5107683;28;20519;-80
2022/04/27 07:01:05;;;;;;;9.45;3.33;;;;;;;8.89;86.71;102360.53;5090797;28;20036;-81
2022/04/27 07:03:32;;;;;;;10.98;3.00;;;;;;;8.97;85.07;102367.88;5108326;28;20039;-81
2022/04/27 07:05:59;;;;;;;13.25;3.38;;;;;;;8.94;85.16;102363.66;5094433;28;20030;-79
2022/04/27 07:08:25;;;;;;;12.90;2.55;;;;;;;9.00;84.86;102365.06;5093234;28;20036;-80
2022/04/27 07:10:50;;;;;;;14.60;3.28;;;;;;;8.79;83.14;102359.41;5095322;28;20035;-81
2022/04/27 07:13:16;;;;;;;10.88;3.10;;;;;;;8.96;85.97;102366.19;5092762;28;20023;-82
2022/04/27 07:15:41;;;;;;;9.82;2.88;;;;;;;9.23;84.37;102378.47;5093839;28;20027;-80
2022/04/27 07:18:07;;;;;;;8.23;3.13;;;;;;;9.30;83.97;102361.44;5089918;28;20027;-80
2022/04/27 07:20:33;;;;;;;11.75;3.60;;;;;;;9.55;83.69;102368.56;5091539;28;20035;-80
2022/04/27 07:22:58;;;;;;;14.63;3.13;;;;;;;9.43;83.08;102364.94;5092731;28;20035;-80
2022/04/27 07:25:24;;;;;;;8.73;3.08;;;;;;;9.61;82.97;102380.44;5087851;28;20040;-80
2022/04/27 07:27:50;;;;;;;11.02;2.85;;;;;;;9.68;81.54;102386.91;5104668;28;20031;-81
2022/04/27 07:30:15;;;;;;;10.75;3.13;;;;;;;9.72;82.28;102377.94;5107086;28;20071;-80
2022/04/27 07:32:42;;;;;;;11.07;2.78;;;;;;;9.80;80.65;102386.13;5109564;28;20035;-79
2022/04/27 07:35:08;;;;;;;10.82;3.15;;;;;;;9.97;81.75;102390.25;5093261;28;20131;-82
2022/04/27 07:37:37;;;;;;;14.60;3.42;;;;;;;9.92;79.75;102390.53;5108873;28;20059;-80
2022/04/27 07:40:06;;;;;;;7.78;3.10;;;;;;;9.74;79.72;102384.75;5102102;28;20031;-79
2022/04/27 07:42:32;;;;;;;9.95;3.30;;;;;;;10.01;81.43;102393.50;5081042;28;20524;-80
2022/04/27 07:44:58;;;;;;;11.80;3.10;;;;;;;10.31;79.96;102407.22;5104194;28;20027;-79
2022/04/27 07:47:23;;;;;;;11.55;2.60;;;;;;;10.49;79.24;102405.13;5104821;28;20153;-79
2022/04/27 07:49:49;;;;;;;9.63;2.85;;;;;;;10.57;76.06;102408.97;5102243;27;20123;-79
2022/04/27 07:52:15;;;;;;;15.57;2.92;;;;;;;10.53;78.15;102403.13;5081159;28;20064;-83
2022/04/27 07:54:42;;;;;;;13.98;2.53;;;;;;;10.47;75.70;102417.50;5111354;28;20497;-80
2022/04/27 07:57:08;;;;;;;12.18;2.88;;;;;;;10.51;78.90;102402.41;5094507;28;20046;-80
2022/04/27 07:59:34;;;;;;;11.13;2.78;;;;;;;10.59;78.05;102415.00;5080585;28;20040;-81
2022/04/27 08:01:59;;;;;;;10.35;2.75;;;;;;;10.83;78.50;102420.31;5089482;28;20077;-79
2022/04/27 08:04:25;;;;;;;13.77;2.78;;;;;;;10.88;74.88;102424.28;5085851;28;20035;-79
2022/04/27 08:06:50;;;;;;;8.20;2.53;;;;;;;10.74;75.06;102427.03;5114737;28;20046;-80
2022/04/27 08:09:16;;;;;;;7.25;2.35;;;;;;;10.70;74.57;102425.59;5112733;28;20050;-80
2022/04/27 08:11:42;;;;;;;15.48;2.40;;;;;;;10.60;75.83;102419.28;5116156;28;20207;-81
2022/04/27 08:14:08;;;;;;;10.60;2.50;;;;;;;10.69;75.82;102426.53;5109889;28;20054;-81
2022/04/27 08:16:34;;;;;;;9.80;2.60;;;;;;;10.94;74.91;102425.63;5094329;28;20036;-81
2022/04/27 08:18:59;;;;;;;15.95;2.30;;;;;;;11.08;73.28;102424.69;5113434;28;20392;-80
2022/04/27 08:21:27;;;;;;;9.20;2.60;;;;;;;11.35;74.02;102435.00;5082502;28;20043;-79
2022/04/27 08:23:53;;;;;;;6.25;2.45;;;;;;;11.59;72.75;102435.03;5107352;28;20036;-81
2022/04/27 08:26:19;;;;;;;12.40;2.38;;;;;;;11.55;71.24;102433.56;5089189;28;20028;-81
2022/04/27 08:28:47;;;;;;;9.77;2.55;;;;;;;11.07;71.09;102434.31;5096841;28;20557;-80
2022/04/27 08:31:14;;;;;;;7.20;2.08;;;;;;;11.07;70.75;102439.56;5112935;28;20037;-80
2022/04/27 08:33:40;;;;;;;12.35;2.90;;;;;;;11.15;71.04;102438.19;5095579;28;20036;-80
2022/04/27 08:36:07;;;;;;;9.70;2.28;;;;;;;11.36;70.57;102443.72;5096303;28;20032;-81
2022/04/27 08:38:34;;;;;;;6.13;2.58;;;;;;;11.68;70.86;102442.22;5088942;28;20398;-81
2022/04/27 08:40:59;;;;;;;9.18;2.20;;;;;;;11.49;67.56;102421.72;5108123;28;20023;-82
2022/04/27 08:43:25;;;;;;;7.50;2.70;;;;;;;11.54;69.48;102441.56;5108554;28;20084;-81
2022/04/27 08:45:52;;;;;;;10.27;2.72;;;;;;;11.54;68.81;102442.38;5109100;28;20040;-81
2022/04/27 08:48:18;;;;;;;9.35;2.70;;;;;;;11.65;71.42;102442.44;5098166;28;20084;-81
2022/04/27 08:50:45;;;;;;;10.18;2.88;;;;;;;11.78;68.35;102452.06;5096591;27;20036;-80
2022/04/27 08:53:11;;;;;;;10.75;2.60;;;;;;;12.12;69.41;102449.63;5091674;28;20063;-81
2022/04/27 08:55:38;;;;;;;6.68;2.67;;;;;;;11.84;67.24;102444.56;5075478;28;20065;-80
2022/04/27 08:58:12;;;;;;;8.13;3.00;;;;;;;12.04;65.85;102458.91;5110039;28;20367;-81
2022/04/27 09:00:39;;;;;;;12.23;2.70;;;;;;;11.96;66.58;102448.13;5090319;28;20405;-81
2022/04/27 09:03:24;;;;;;;11.73;2.90;;;;;;;12.15;67.25;102450.22;5091502;28;20378;-81
2022/04/27 09:05:52;;;;;;;14.57;3.25;;;;;;;12.35;66.76;102445.25;5082641;28;20068;-80
2022/04/27 09:08:18;;;;;;;10.27;3.38;;;;;;;12.21;66.00;102456.81;5110565;28;20059;-80
2022/04/27 09:10:44;;;;;;;16.65;3.85;;;;;;;12.02;66.07;102447.66;5085933;28;20038;-81
2022/04/27 09:13:10;;;;;;;17.42;3.85;;;;;;;12.04;66.13;102458.06;5082489;28;20040;-81
2022/04/27 09:15:36;;;;;;;13.40;3.50;;;;;;;12.29;67.47;102451.81;5090931;28;20038;-80
2022/04/27 09:20:54;;;;;;;14.60;2.90;;;;;;;12.75;67.35;102450.94;5100810;28;20038;-81
2022/04/27 09:23:29;;;;;;;8.52;3.20;;;;;;;12.87;64.67;102454.41;5117293;27;20032;-82
2022/04/27 09:25:57;;;;;;;11.00;3.53;;;;;;;12.92;64.58;102460.16;5102282;28;20052;-80
2022/04/27 09:28:24;;;;;;;10.70;3.17;;;;;;;13.13;64.64;102456.75;5076367;28;20035;-81
2022/04/27 09:30:50;;;;;;;9.30;3.05;;;;;;;12.85;63.03;102462.41;5105101;28;20059;-79
2022/04/27 09:33:34;;;;;;;7.85;2.40;;;;;;;13.09;62.01;102453.56;5094867;28;20070;-82
2022/04/27 09:36:00;;;;;;;6.43;2.38;;;;;;;13.13;59.80;102449.72;5092967;28;20035;-80
2022/04/27 09:38:26;;;;;;;6.03;2.47;;;;;;;13.13;59.54;102454.97;5075037;28;20497;-80
2022/04/27 09:40:57;;;;;;;12.00;2.70;;;;;;;13.09;59.76;102455.31;5101495;28;20073;-79
2022/04/27 09:43:55;;;;;;;6.55;2.67;;;;;;;13.33;58.55;102458.69;5086047;28;20028;-80
2022/04/27 09:46:25;;;;;;;8.95;3.22;;;;;;;13.24;57.77;102454.97;5055317;28;20044;-80
2022/04/27 09:49:10;;;;;;;6.13;2.53;;;;;;;13.47;59.22;102454.09;5095879;28;20038;-81
2022/04/27 09:51:44;;;;;;;5.68;2.95;;;;;;;13.77;60.35;102453.44;5110471;28;20035;-80
2022/04/27 09:54:12;;;;;;;9.73;2.97;;;;;;;13.82;59.88;102452.09;5073154;28;20044;-80
2022/04/27 09:56:39;;;;;;;11.32;3.53;;;;;;;13.80;62.52;102451.34;5089554;28;20051;-81
2022/04/27 09:59:09;;;;;;;11.82;3.70;;;;;;;13.83;62.46;102456.38;5110268;28;20031;-81
2022/04/27 10:01:36;;;;;;;11.10;3.80;;;;;;;14.24;62.40;102456.56;5073275;28;20040;-80
2022/04/27 10:04:06;;;;;;;12.05;3.60;;;;;;;14.33;58.09;102445.19;5094892;28;20043;-81
2022/04/27 10:06:32;;;;;;;8.75;3.42;;;;;;;14.49;60.90;102444.75;5103509;28;20039;-81
2022/04/27 10:08:59;;;;;;;12.95;3.25;;;;;;;14.85;59.25;102457.59;5091231;28;20048;-80
2022/04/27 10:11:29;;;;;;;11.18;3.20;;;;;;;15.04;60.51;102449.75;5088946;28;20043;-81
2022/04/27 10:13:55;;;;;;;13.95;3.50;;;;;;;14.94;61.05;102454.19;5110355;28;20042;-81
2022/04/27 10:16:25;;;;;;;12.20;3.28;;;;;;;14.91;57.16;102444.69;5086574;28;20043;-80
2022/04/27 10:18:54;;;;;;;8.32;3.38;;;;;;;14.79;58.83;102446.59;5104861;28;20050;-80
2022/04/27 10:21:43;;;;;;;8.68;3.60;;;;;;;14.93;59.05;102444.56;5102192;28;20028;-82
2022/04/27 10:24:12;;;;;;;6.25;2.90;;;;;;;15.08;60.63;102445.84;5091099;28;20032;-81
2022/04/27 10:26:39;;;;;;;7.78;3.30;;;;;;;14.85;56.23;102439.94;5092993;28;20039;-81
2022/04/27 10:29:05;;;;;;;8.38;3.30;;;;;;;14.67;58.98;102438.88;5092230;28;20028;-82
2022/04/27 10:31:40;;;;;;;8.13;3.17;;;;;;;14.67;57.28;102449.44;5072817;28;20393;-81
2022/04/27 10:34:26;;;;;;;6.63;3.00;;;;;;;14.66;55.46;102445.97;5107779;28;20035;-80
2022/04/27 10:37:00;;;;;;;8.68;3.10;;;;;;;14.07;56.64;102446.56;5106655;28;20071;-82
2022/04/27 10:39:27;;;;;;;7.68;2.72;;;;;;;14.02;55.85;102445.16;5088746;28;20040;-80
2022/04/27 10:42:02;;;;;;;8.95;2.38;;;;;;;14.18;55.85;102452.63;5085320;28;20111;-80
2022/04/27 10:44:50;;;;;;;7.88;2.60;;;;;;;14.34;56.70;102443.41;5092618;28;20046;-80
2022/04/27 10:47:21;;;;;;;5.57;2.75;;;;;;;14.74;55.10;102451.44;5108305;28;20046;-80
2022/04/27 10:49:49;;;;;;;5.35;2.38;;;;;;;14.26;55.89;102444.06;5100945;27;20058;-80
2022/04/27 10:52:15;;;;;;;10.20;3.03;;;;;;;14.24;55.04;102443.38;5104440;28;20511;-80
2022/04/27 10:54:41;;;;;;;4.28;2.63;;;;;;;14.48;54.28;102447.53;5099006;28;20054;-79
2022/04/27 10:57:39;;;;;;;7.72;2.60;;;;;;;14.96;53.86;102452.22;5099919;28;20036;-80
2022/04/27 11:00:06;;;;;;;8.65;2.65;;;;;;;15.11;55.50;102445.59;5084718;28;20040;-79
2022/04/27 11:02:34;;;;;;;4.32;1.92;;;;;;;15.27;52.54;102460.09;5102734;28;20035;-80
2022/04/27 11:05:23;;;;;;;5.38;2.40;;;;;;;14.98;51.43;102455.56;5065695;28;20063;-80
2022/04/27 11:07:58;;;;;;;4.32;2.28;;;;;;;15.52;52.01;102456.97;5072016;28;20074;-78
2022/04/27 11:10:24;;;;;;;6.80;2.97;;;;;;;15.62;51.96;102454.31;5086448;28;20073;-80
2022/04/27 11:12:52;;;;;;;10.77;2.90;;;;;;;15.45;51.05;102460.28;5109483;28;20477;-78
2022/04/27 11:15:26;;;;;;;6.93;2.42;;;;;;;15.47;53.35;102464.47;5109803;28;20055;-78
2022/04/27 11:18:01;;;;;;;6.18;2.58;;;;;;;15.64;50.59;102451.53;5096813;28;20027;-79
2022/04/27 11:20:35;;;;;;;6.88;2.63;;;;;;;15.71;52.91;102460.59;5073225;28;20034;-80
2022/04/27 11:23:03;;;;;;;6.40;2.42;;;;;;;15.99;48.68;102466.03;5089225;28;20039;-80
2022/04/27 11:25:31;;;;;;;7.28;2.63;;;;;;;15.93;48.59;102468.25;5106083;28;20047;-80
2022/04/27 11:27:59;;;;;;;6.15;2.35;;;;;;;15.66;51.88;102465.47;5102983;28;20020;-80
2022/04/27 11:30:25;;;;;;;5.53;2.40;;;;;;;15.70;49.67;102454.44;5086987;28;20048;-81
2022/04/27 11:32:52;;;;;;;7.13;2.45;;;;;;;15.84;50.47;102466.50;5097648;28;20762;-81
2022/04/27 11:35:22;;;;;;;5.80;2.55;;;;;;;15.65;48.34;102466.41;5104481;28;20122;-78
2022/04/27 11:37:52;;;;;;;6.35;2.60;;;;;;;15.82;48.52;102468.41;5103763;28;20030;-80
2022/04/27 11:40:22;;;;;;;7.50;2.75;;;;;;;16.18;48.71;102470.47;5103421;28;20516;-79
2022/04/27 11:42:48;;;;;;;5.95;2.38;;;;;;;16.25;47.48;102471.59;5070554;28;20062;-78
2022/04/27 11:45:19;;;;;;;5.50;2.03;;;;;;;16.17;48.32;102463.53;5071047;28;20063;-80
2022/04/27 11:47:58;;;;;;;11.30;2.60;;;;;;;15.79;48.75;102475.81;5090068;28;20147;-79
2022/04/27 11:50:24;;;;;;;8.15;2.53;;;;;;;15.88;47.88;102467.00;5106526;28;20039;-80